createdAt,value
2023-02-05T00:00:57.329Z,81.68
2023-02-05T00:02:04.067Z,81.47
2023-02-05T00:03:23.430Z,81.07
2023-02-05T00:04:36.322Z,80.92
2023-02-05T00:05:40.496Z,80.98
2023-02-05T00:06:46.071Z,80.98
2023-02-05T00:07:50.210Z,80.28
2023-02-05T00:08:54.469Z,80.15
2023-02-05T00:09:59.184Z,80.19
2023-02-05T00:11:09.606Z,80.02
2023-02-05T00:12:22.258Z,79.69
2023-02-05T00:13:27.073Z,79.56
2023-02-05T00:14:31.253Z,79.50
2023-02-05T00:15:40.813Z,79.23
2023-02-05T00:16:46.546Z,79.42
2023-02-05T00:17:53.528Z,79.25
2023-02-05T00:19:21.138Z,79.23
2023-02-05T00:20:32.529Z,78.87
2023-02-05T00:21:37.127Z,79.34
2023-02-05T00:22:42.088Z,79.44
2023-02-05T00:23:48.367Z,79.55
2023-02-05T00:24:52.677Z,79.42
2023-02-05T00:25:57.849Z,79.79
2023-02-05T00:27:02.447Z,79.85
2023-02-05T00:28:06.597Z,79.69
2023-02-05T00:29:15.253Z,79.91
2023-02-05T00:30:20.106Z,80.05
2023-02-05T00:31:27.364Z,79.76
2023-02-05T00:32:31.632Z,79.92
2023-02-05T00:33:36.188Z,80.28
2023-02-05T00:34:41.395Z,80.36
2023-02-05T00:35:46.275Z,80.34
2023-02-05T00:36:51.095Z,80.22
2023-02-05T00:37:57.162Z,80.28
2023-02-05T00:39:02.307Z,80.15
2023-02-05T00:40:07.583Z,80.18
2023-02-05T00:41:22.671Z,79.97
2023-02-05T00:42:27.781Z,80.13
2023-02-05T00:43:32.912Z,80.29
2023-02-05T00:44:37.714Z,80.43
2023-02-05T00:45:42.332Z,79.93
2023-02-05T00:46:47.282Z,80.00
2023-02-05T00:47:51.910Z,80.04
2023-02-05T00:48:56.586Z,80.09
2023-02-05T00:50:00.858Z,79.78
2023-02-05T00:51:06.558Z,80.00
2023-02-05T00:52:15.626Z,80.27
2023-02-05T00:53:21.938Z,80.21
2023-02-05T00:54:26.679Z,79.96
2023-02-05T00:55:32.401Z,80.24
2023-02-05T00:56:38.040Z,80.94
2023-02-05T00:57:43.110Z,81.47
2023-02-05T00:58:51.536Z,81.16
2023-02-05T00:59:55.326Z,80.98
2023-02-05T01:00:59.446Z,80.95
2023-02-05T01:02:03.267Z,80.69
2023-02-05T01:03:08.180Z,80.95
2023-02-05T01:04:20.907Z,80.91
2023-02-05T01:05:27.399Z,80.68
2023-02-05T01:06:31.345Z,80.66
2023-02-05T01:07:36.056Z,80.31
2023-02-05T01:08:40.944Z,80.37
2023-02-05T01:09:45.403Z,80.45
2023-02-05T01:10:51.942Z,80.57
2023-02-05T01:11:55.868Z,80.93
2023-02-05T01:13:00.035Z,80.89
2023-02-05T01:14:04.338Z,81.27
2023-02-05T01:15:15.300Z,80.66
2023-02-05T01:16:19.375Z,80.82
2023-02-05T01:17:23.813Z,80.81
2023-02-05T01:18:27.831Z,80.68
2023-02-05T01:19:34.667Z,80.71
2023-02-05T01:20:41.708Z,80.75
2023-02-05T01:21:46.898Z,80.85
2023-02-05T01:22:53.174Z,81.16
2023-02-05T01:24:00.679Z,80.99
2023-02-05T01:25:06.447Z,81.39
2023-02-05T01:26:14.591Z,81.81
2023-02-05T01:27:27.531Z,81.98
2023-02-05T01:28:31.799Z,81.80
2023-02-05T01:29:36.675Z,81.79
2023-02-05T01:30:42.108Z,81.80
2023-02-05T01:31:46.716Z,81.79
2023-02-05T01:32:50.932Z,81.94
2023-02-05T01:33:54.963Z,81.81
2023-02-05T01:34:59.358Z,81.49
2023-02-05T01:36:03.902Z,81.53
2023-02-05T01:37:19.369Z,81.83
2023-02-05T01:38:31.711Z,81.71
2023-02-05T01:39:37.886Z,81.90
2023-02-05T01:40:41.871Z,81.68
2023-02-05T01:41:46.945Z,81.57
2023-02-05T01:42:51.096Z,81.63
2023-02-05T01:44:25.031Z,81.47
2023-02-05T01:45:54.930Z,81.51
2023-02-05T01:46:58.989Z,81.31
2023-02-05T01:48:06.276Z,81.12
2023-02-05T01:49:40.061Z,80.82
2023-02-05T01:50:53.705Z,81.13
2023-02-05T01:52:17.528Z,80.95
2023-02-05T01:53:36.536Z,80.54
2023-02-05T01:54:46.899Z,80.52
2023-02-05T01:56:25.708Z,80.68
2023-02-05T01:57:29.403Z,80.76
2023-02-05T01:59:21.895Z,81.03
2023-02-05T02:00:27.815Z,81.23
2023-02-05T02:01:40.981Z,81.39
2023-02-05T02:02:54.612Z,81.14
2023-02-05T02:04:40.267Z,80.68
2023-02-05T02:05:46.627Z,80.65
2023-02-05T02:06:56.698Z,80.86
2023-02-05T02:08:06.569Z,80.35
2023-02-05T02:09:29.187Z,80.39
2023-02-05T02:10:50.942Z,80.44
2023-02-05T02:12:05.475Z,80.50
2023-02-05T02:13:24.718Z,80.87
2023-02-05T02:14:36.245Z,80.83
2023-02-05T02:15:43.726Z,81.06
2023-02-05T02:16:54.498Z,81.17
2023-02-05T02:18:23.185Z,80.78
2023-02-05T02:20:22.244Z,80.78
2023-02-05T02:22:16.571Z,81.33
2023-02-05T02:24:25.963Z,80.93
2023-02-05T02:26:34.659Z,81.80
2023-02-05T02:27:47.081Z,82.08
2023-02-05T02:29:21.911Z,82.02
2023-02-05T02:30:52.276Z,81.97
2023-02-05T02:32:27.029Z,82.26
2023-02-05T02:34:00.933Z,82.59
2023-02-05T02:35:45.862Z,82.22
2023-02-05T02:37:32.641Z,82.18
2023-02-05T02:38:51.020Z,81.60
2023-02-05T02:40:33.185Z,81.47
2023-02-05T02:42:06.942Z,82.30
2023-02-05T02:43:44.324Z,82.01
2023-02-05T02:45:09.165Z,81.88
2023-02-05T02:46:53.109Z,81.87
2023-02-05T02:48:04.977Z,81.96
2023-02-05T02:49:28.974Z,82.06
2023-02-05T02:50:50.931Z,81.80
2023-02-05T02:52:00.123Z,81.48
2023-02-05T02:53:26.856Z,81.18
2023-02-05T02:54:36.935Z,80.60
2023-02-05T02:55:49.505Z,80.93
2023-02-05T02:56:59.134Z,80.42
2023-02-05T02:58:19.239Z,80.65
2023-02-05T02:59:30.678Z,80.10
2023-02-05T06:52:26.854Z,76.94
